Time;durP1;ratioP1;P1;durP2;ratioP2;P2;SDS_P1;SDS_P2;PMS_P1;PMS_P2;Temp;Humidity;BMP_temperature;BMP_pressure;BME280_temperature;BME280_humidity;BME280_pressure;Samples;Min_cycle;Max_cycle;Signal;HPM_P1;HPM_P2
2023/05/02 00:02:36;;;;;;;11.12;9.98;;;7.80;99.90;;;;;;7300501;32;20195;-54
2023/05/02 00:06:38;;;;;;;13.15;9.82;;;7.80;99.90;;;;;;7301572;32;20105;-54
2023/05/02 00:10:40;;;;;;;14.35;9.77;;;7.70;99.90;;;;;;7296836;32;20122;-54
2023/05/02 00:14:42;;;;;;;12.63;10.30;;;7.60;99.90;;;;;;7296538;32;21000;-55
2023/05/02 00:18:43;;;;;;;14.82;11.38;;;7.50;99.90;;;;;;7299786;32;21127;-55
2023/05/02 00:22:45;;;;;;;12.60;11.20;;;7.60;99.90;;;;;;7307510;32;20118;-55
2023/05/02 00:26:47;;;;;;;15.18;11.80;;;7.60;99.90;;;;;;7302964;32;20215;-54
2023/05/02 00:30:48;;;;;;;17.45;13.25;;;7.70;99.90;;;;;;7303343;32;20467;-55
2023/05/02 00:34:50;;;;;;;18.48;14.07;;;7.80;99.90;;;;;;7304093;32;20190;-54
2023/05/02 00:38:52;;;;;;;18.25;15.35;;;7.90;99.90;;;;;;7310475;32;20255;-55
2023/05/02 00:42:53;;;;;;;16.48;13.77;;;8.00;99.90;;;;;;7298330;32;20217;-55
2023/05/02 00:46:55;;;;;;;22.33;15.38;;;8.10;99.90;;;;;;7299031;32;20118;-55
2023/05/02 00:50:57;;;;;;;18.75;14.15;;;8.10;99.90;;;;;;7296066;32;20131;-55
2023/05/02 00:55:00;;;;;;;15.90;13.23;;;8.20;99.90;;;;;;7307574;32;20122;-54
2023/05/02 00:59:04;;;;;;;17.17;14.23;;;8.20;99.90;;;;;;7297677;32;20149;-54
2023/05/02 01:03:23;;;;;;;20.75;17.55;;;8.30;99.90;;;;;;7304195;32;20100;-56
2023/05/02 01:07:44;;;;;;;35.95;24.90;;;8.40;99.90;;;;;;7299823;32;20430;-57
2023/05/02 01:12:08;;;;;;;46.22;30.75;;;8.50;99.90;;;;;;7306806;32;20147;-55
2023/05/02 01:16:13;;;;;;;50.05;32.78;;;8.50;99.90;;;;;;7309519;32;20118;-55
2023/05/02 01:20:19;;;;;;;48.17;32.70;;;8.50;99.90;;;;;;7305853;32;20219;-54
2023/05/02 01:24:46;;;;;;;40.00;28.90;;;8.50;99.90;;;;;;7309172;32;20193;-54
2023/05/02 01:28:56;;;;;;;27.20;21.70;;;8.50;99.90;;;;;;7304267;32;20775;-55
2023/05/02 01:33:00;;;;;;;34.60;25.27;;;8.50;99.90;;;;;;7304707;32;20116;-55
2023/05/02 01:37:04;;;;;;;54.83;38.15;;;8.60;99.90;;;;;;7307239;32;20112;-56
2023/05/02 01:41:08;;;;;;;65.50;40.20;;;8.90;99.90;;;;;;7305609;32;20107;-54
2023/05/02 01:45:11;;;;;;;61.60;38.80;;;9.00;99.90;;;;;;7311024;32;20463;-54
2023/05/02 01:49:13;;;;;;;68.50;42.80;;;9.10;99.90;;;;;;7311109;32;20122;-57
2023/05/02 01:53:16;;;;;;;69.57;44.50;;;9.20;99.90;;;;;;7309827;32;20135;-55
2023/05/02 01:57:18;;;;;;;65.40;42.53;;;9.30;99.90;;;;;;7310251;32;20132;-55
2023/05/02 02:01:23;;;;;;;64.37;40.60;;;9.40;99.90;;;;;;7305803;32;20190;-56
2023/05/02 02:05:27;;;;;;;59.92;39.05;;;9.50;99.90;;;;;;7304018;32;20186;-54
2023/05/02 02:09:29;;;;;;;59.65;37.13;;;9.50;99.90;;;;;;7293470;32;20155;-54
2023/05/02 02:13:38;;;;;;;58.13;37.53;;;9.60;99.90;;;;;;7306397;32;20153;-55
2023/05/02 02:17:45;;;;;;;59.08;36.10;;;9.60;99.90;;;;;;7308097;32;20127;-55
2023/05/02 02:21:49;;;;;;;52.22;34.90;;;9.70;99.90;;;;;;7305828;32;20676;-55
2023/05/02 02:25:53;;;;;;;53.83;33.90;;;9.70;99.90;;;;;;7303949;32;20177;-55
2023/05/02 02:29:54;;;;;;;49.45;32.92;;;9.80;99.90;;;;;;7303188;32;20191;-55
2023/05/02 02:33:56;;;;;;;57.92;33.35;;;9.80;99.90;;;;;;7302421;32;20210;-55
2023/05/02 02:38:04;;;;;;;51.92;31.80;;;9.90;99.90;;;;;;7304394;32;20792;-55
2023/05/02 02:42:21;;;;;;;50.33;32.35;;;9.90;99.90;;;;;;7311612;32;20104;-54
2023/05/02 02:46:37;;;;;;;48.17;30.77;;;10.00;99.90;;;;;;7310752;32;20141;-55
2023/05/02 02:51:21;;;;;;;50.42;29.52;;;10.00;99.90;;;;;;7307719;32;20520;-55
2023/05/02 02:55:46;;;;;;;50.12;30.15;;;9.90;99.90;;;;;;7313320;32;20596;-55
2023/05/02 03:00:14;;;;;;;45.15;29.55;;;10.00;99.90;;;;;;7313181;32;20100;-55
2023/05/02 03:04:19;;;;;;;43.55;28.42;;;10.10;99.90;;;;;;7310186;32;20168;-55
2023/05/02 03:08:21;;;;;;;50.00;30.58;;;10.10;99.90;;;;;;7308675;32;20459;-56
2023/05/02 03:12:23;;;;;;;46.33;29.55;;;10.00;99.90;;;;;;7304449;32;20104;-55
2023/05/02 03:16:38;;;;;;;48.63;28.02;;;10.10;99.90;;;;;;7310193;32;20117;-55
2023/05/02 03:20:40;;;;;;;48.17;28.08;;;10.20;99.90;;;;;;7307630;32;20233;-54
2023/05/02 03:24:42;;;;;;;44.72;27.20;;;10.20;99.90;;;;;;7305457;32;20105;-56
2023/05/02 03:28:45;;;;;;;41.60;25.30;;;10.30;99.90;;;;;;7303989;32;20118;-55
2023/05/02 03:32:47;;;;;;;42.30;26.27;;;10.30;99.90;;;;;;7308489;32;20133;-55
2023/05/02 03:36:49;;;;;;;33.65;22.98;;;10.30;99.90;;;;;;7307635;32;20145;-55
2023/05/02 03:40:51;;;;;;;38.72;21.75;;;10.20;99.90;;;;;;7308177;32;20651;-55
2023/05/02 03:44:52;;;;;;;33.25;20.45;;;10.20;99.90;;;;;;7307841;32;20125;-55
2023/05/02 03:48:56;;;;;;;33.03;19.05;;;10.30;99.90;;;;;;7308592;32;20246;-55
2023/05/02 03:52:58;;;;;;;29.70;17.95;;;10.30;99.90;;;;;;7305991;32;20112;-55
2023/05/02 03:57:00;;;;;;;30.33;17.62;;;10.30;99.90;;;;;;7314584;32;20108;-56
2023/05/02 04:01:02;;;;;;;26.25;16.42;;;10.20;99.90;;;;;;7304150;32;20175;-57
2023/05/02 04:05:04;;;;;;;23.70;15.57;;;10.40;99.90;;;;;;7307687;32;20127;-55
2023/05/02 04:09:05;;;;;;;24.52;14.95;;;10.40;99.90;;;;;;7308656;32;20294;-55
2023/05/02 04:13:07;;;;;;;24.70;14.25;;;10.40;99.90;;;;;;7306186;32;20104;-55
2023/05/02 04:17:09;;;;;;;23.95;14.38;;;10.30;99.90;;;;;;7309633;32;20131;-55
2023/05/02 04:21:11;;;;;;;24.83;14.32;;;10.30;99.90;;;;;;7307372;32;20126;-55
2023/05/02 04:25:12;;;;;;;22.58;14.35;;;10.30;99.90;;;;;;7309471;32;20199;-55
2023/05/02 04:29:14;;;;;;;22.25;14.25;;;10.40;99.90;;;;;;7305871;32;20413;-55
2023/05/02 04:33:17;;;;;;;27.80;12.48;;;10.40;99.90;;;;;;7303992;32;20301;-56
2023/05/02 04:37:19;;;;;;;22.23;12.82;;;10.50;99.90;;;;;;7307337;32;20132;-55
2023/05/02 04:41:22;;;;;;;21.35;11.40;;;10.60;99.90;;;;;;7303611;32;20586;-55
2023/05/02 04:45:24;;;;;;;20.10;11.57;;;10.60;99.90;;;;;;7303693;32;20540;-55
2023/05/02 04:49:26;;;;;;;19.90;11.23;;;10.50;99.90;;;;;;7299994;32;20126;-56
2023/05/02 04:53:28;;;;;;;16.92;11.25;;;10.60;99.90;;;;;;7308239;32;20108;-56
2023/05/02 04:57:30;;;;;;;21.50;12.35;;;10.50;99.90;;;;;;7310038;32;20305;-56
2023/05/02 05:01:32;;;;;;;22.40;12.98;;;10.50;99.90;;;;;;7309255;32;20217;-57
2023/05/02 05:05:33;;;;;;;19.90;12.40;;;10.40;99.90;;;;;;7300252;32;20170;-56
2023/05/02 05:09:35;;;;;;;22.58;13.35;;;10.40;99.90;;;;;;7300550;32;20124;-57
2023/05/02 05:13:37;;;;;;;22.62;13.45;;;10.30;99.90;;;;;;7304022;32;20123;-56
2023/05/02 05:17:39;;;;;;;23.20;15.77;;;10.30;99.90;;;;;;7303244;32;20186;-57
2023/05/02 05:21:41;;;;;;;29.08;16.15;;;10.30;99.90;;;;;;7307901;32;20148;-55
2023/05/02 05:25:42;;;;;;;22.65;14.98;;;10.20;99.90;;;;;;7302375;32;20419;-57
2023/05/02 05:29:47;;;;;;;24.98;16.10;;;10.30;99.90;;;;;;7304572;32;20443;-56
2023/05/02 05:33:48;;;;;;;29.12;18.02;;;10.30;99.90;;;;;;7304559;32;20167;-57
2023/05/02 05:37:50;;;;;;;31.33;18.90;;;10.30;99.90;;;;;;7306613;32;20462;-57
2023/05/02 05:41:53;;;;;;;28.55;18.25;;;10.30;99.90;;;;;;7298093;32;21231;-57
2023/05/02 05:45:55;;;;;;;32.03;19.42;;;10.30;99.90;;;;;;7300397;32;20214;-56
2023/05/02 05:49:56;;;;;;;26.62;17.37;;;10.20;99.90;;;;;;7292399;32;20130;-57
2023/05/02 05:53:59;;;;;;;24.90;16.60;;;10.20;99.90;;;;;;7303941;32;20170;-56
2023/05/02 05:58:00;;;;;;;24.25;15.23;;;10.10;99.90;;;;;;7305581;32;20249;-56
2023/05/02 06:02:03;;;;;;;25.35;16.37;;;10.20;99.90;;;;;;7314904;32;20263;-55
2023/05/02 06:06:04;;;;;;;23.67;15.77;;;10.10;99.90;;;;;;7305914;32;20100;-56
2023/05/02 06:10:08;;;;;;;26.00;16.48;;;10.10;99.90;;;;;;7310002;32;20229;-55
2023/05/02 06:14:10;;;;;;;23.30;13.90;;;10.10;99.90;;;;;;7306230;32;20101;-56
2023/05/02 06:18:12;;;;;;;19.83;11.00;;;10.00;99.90;;;;;;7309481;32;20473;-57
2023/05/02 06:22:14;;;;;;;16.00;10.27;;;9.90;99.90;;;;;;7309915;32;20512;-56
2023/05/02 06:26:16;;;;;;;12.82;8.43;;;9.80;99.90;;;;;;7309591;32;20115;-56
2023/05/02 06:30:18;;;;;;;13.40;7.45;;;10.00;99.90;;;;;;7305844;32;20213;-56
2023/05/02 06:34:19;;;;;;;13.10;7.05;;;10.00;99.90;;;;;;7300469;32;20120;-57
2023/05/02 06:38:22;;;;;;;11.32;6.28;;;10.10;99.90;;;;;;7304493;32;20127;-57
2023/05/02 06:42:23;;;;;;;9.25;4.72;;;10.20;99.90;;;;;;7314015;32;20118;-56
2023/05/02 06:46:28;;;;;;;11.45;4.32;;;10.20;99.90;;;;;;7305475;32;20372;-56
2023/05/02 06:50:30;;;;;;;7.82;3.80;;;10.20;99.90;;;;;;7306937;32;20589;-56
2023/05/02 06:54:32;;;;;;;8.70;3.62;;;10.30;99.90;;;;;;7313819;32;20104;-57
2023/05/02 06:58:34;;;;;;;8.68;4.30;;;10.30;99.90;;;;;;7308476;32;20346;-57
2023/05/02 07:02:35;;;;;;;10.68;3.78;;;10.30;99.90;;;;;;7306426;32;20285;-56
2023/05/02 07:06:37;;;;;;;6.00;3.42;;;10.30;99.90;;;;;;7305523;32;20328;-57
2023/05/02 07:10:39;;;;;;;9.55;3.80;;;10.50;99.90;;;;;;7304559;32;20198;-57
2023/05/02 07:14:41;;;;;;;7.20;3.72;;;10.60;99.90;;;;;;7308889;32;20107;-57
2023/05/02 07:18:44;;;;;;;11.52;4.05;;;10.70;99.90;;;;;;7303766;32;20100;-56
2023/05/02 07:22:46;;;;;;;6.40;3.47;;;11.00;99.90;;;;;;7314913;32;20223;-56
2023/05/02 07:26:47;;;;;;;7.07;3.95;;;11.10;99.90;;;;;;7301111;32;20095;-56
2023/05/02 07:30:49;;;;;;;6.75;3.37;;;10.80;99.90;;;;;;7295630;32;20107;-56
2023/05/02 07:34:55;;;;;;;10.00;3.25;;;10.60;99.90;;;;;;7299356;32;20147;-56
2023/05/02 07:38:57;;;;;;;5.05;2.80;;;10.50;99.90;;;;;;7306042;32;20870;-55
2023/05/02 07:43:02;;;;;;;7.78;2.95;;;10.30;99.90;;;;;;7305084;32;20475;-55
2023/05/02 07:47:04;;;;;;;5.03;2.00;;;10.30;99.90;;;;;;7309329;32;20103;-56
2023/05/02 07:51:07;;;;;;;8.35;2.25;;;10.20;99.90;;;;;;7300656;32;20220;-56
2023/05/02 07:55:09;;;;;;;7.82;2.12;;;10.10;99.90;;;;;;7308563;32;20458;-55
2023/05/02 07:59:10;;;;;;;7.20;1.98;;;10.20;99.90;;;;;;7306014;32;20199;-55
2023/05/02 08:03:12;;;;;;;9.38;1.90;;;10.30;99.90;;;;;;7303053;32;20134;-57
2023/05/02 08:07:14;;;;;;;7.53;1.67;;;10.40;99.90;;;;;;7301996;32;20711;-56
2023/05/02 08:11:16;;;;;;;5.45;1.77;;;10.40;99.90;;;;;;7307454;32;20230;-55
2023/05/02 08:15:18;;;;;;;8.77;2.15;;;10.40;99.90;;;;;;7301914;32;20104;-56
2023/05/02 08:19:19;;;;;;;3.92;1.60;;;10.40;99.90;;;;;;7308470;32;20736;-56
2023/05/02 08:23:21;;;;;;;6.45;1.77;;;10.40;99.90;;;;;;7304421;32;20100;-56
2023/05/02 08:27:23;;;;;;;10.65;1.70;;;10.50;99.90;;;;;;7300059;32;20126;-56
2023/05/02 08:31:24;;;;;;;4.95;1.37;;;10.50;99.90;;;;;;7299909;32;20122;-55
2023/05/02 08:35:29;;;;;;;6.10;1.52;;;10.40;99.90;;;;;;7307534;32;20203;-56
2023/05/02 08:39:32;;;;;;;7.68;2.20;;;10.40;99.90;;;;;;7309685;32;20151;-56
2023/05/02 08:43:34;;;;;;;6.80;1.40;;;10.50;99.90;;;;;;7305364;32;20154;-56
2023/05/02 08:47:39;;;;;;;8.25;2.10;;;10.70;99.90;;;;;;7307053;32;20320;-56
2023/05/02 08:51:41;;;;;;;5.35;1.85;;;10.90;99.90;;;;;;7304464;32;20104;-55
2023/05/02 08:55:43;;;;;;;5.68;1.52;;;10.90;99.90;;;;;;7302224;32;20219;-56
2023/05/02 08:59:45;;;;;;;7.07;2.25;;;10.80;99.90;;;;;;7307420;32;20178;-56
2023/05/02 09:03:47;;;;;;;6.75;1.75;;;10.80;99.90;;;;;;7303540;32;20149;-57
2023/05/02 09:07:50;;;;;;;6.57;2.22;;;10.70;99.90;;;;;;7301616;32;20127;-58
2023/05/02 09:11:52;;;;;;;3.45;1.50;;;10.70;99.90;;;;;;7303794;32;20149;-58
2023/05/02 09:16:05;;;;;;;2.33;1.35;;;10.50;99.90;;;;;;7303546;32;20175;-57
2023/05/02 09:20:08;;;;;;;4.35;1.45;;;10.50;99.90;;;;;;7302051;32;20191;-57
2023/05/02 09:24:21;;;;;;;6.10;1.80;;;10.60;99.90;;;;;;7301087;32;20139;-56
2023/05/02 09:28:38;;;;;;;5.00;1.83;;;10.80;99.90;;;;;;7299534;32;20104;-58
2023/05/02 09:32:44;;;;;;;;;;;11.20;99.90;;;;;;7303498;32;20275;-57
2023/05/02 09:36:52;;;;;;;3.80;1.67;;;11.60;99.90;;;;;;7300696;32;20062;-57
2023/05/02 09:40:55;;;;;;;9.30;2.42;;;12.20;99.90;;;;;;7306505;32;20194;-57
2023/05/02 09:44:57;;;;;;;7.05;1.80;;;12.50;99.90;;;;;;7309079;32;20231;-57
2023/05/02 09:48:58;;;;;;;11.30;2.80;;;13.00;99.90;;;;;;7322502;32;20205;-57
2023/05/02 09:53:05;;;;;;;4.50;1.65;;;12.80;99.90;;;;;;7308434;32;20570;-57
2023/05/02 09:57:07;;;;;;;8.83;2.20;;;12.40;99.90;;;;;;7312966;32;20282;-58
2023/05/02 10:01:16;;;;;;;9.57;2.55;;;12.70;99.90;;;;;;7297480;32;20220;-57
2023/05/02 10:05:19;;;;;;;8.32;2.70;;;13.70;99.90;;;;;;7298761;32;20145;-56
2023/05/02 10:09:21;;;;;;;6.80;2.00;;;14.50;99.90;;;;;;7295202;32;20752;-57
2023/05/02 10:13:26;;;;;;;4.80;1.95;;;15.00;99.90;;;;;;7300436;32;20148;-55
2023/05/02 10:17:30;;;;;;;5.82;2.45;;;14.40;99.90;;;;;;7300246;32;20169;-55
2023/05/02 10:21:33;;;;;;;9.27;2.90;;;13.70;99.90;;;;;;7296527;32;20476;-55
2023/05/02 10:25:35;;;;;;;5.68;2.33;;;14.00;99.90;;;;;;7295910;32;20135;-55
2023/05/02 10:29:39;;;;;;;7.35;2.53;;;14.00;99.90;;;;;;7297657;32;20246;-55
2023/05/02 10:33:41;;;;;;;6.43;2.37;;;12.90;99.90;;;;;;7299055;32;21248;-56
2023/05/02 10:37:44;;;;;;;4.18;1.85;;;12.90;99.90;;;;;;7296851;32;20092;-56
2023/05/02 10:41:46;;;;;;;10.60;2.37;;;13.70;99.90;;;;;;7297035;32;20138;-55
2023/05/02 10:45:48;;;;;;;7.43;2.55;;;13.40;99.90;;;;;;7299645;32;20154;-55
2023/05/02 10:50:00;;;;;;;9.65;2.87;;;13.20;99.90;;;;;;7298894;32;20151;-56
2023/05/02 10:54:22;;;;;;;9.65;2.72;;;13.30;99.90;;;;;;7296185;32;20154;-55
2023/05/02 10:58:24;;;;;;;5.90;3.37;;;13.60;99.90;;;;;;7302128;32;20226;-55
2023/05/02 11:02:29;;;;;;;7.78;3.05;;;13.20;99.90;;;;;;7305520;32;20115;-55
2023/05/02 11:06:55;;;;;;;9.65;3.65;;;12.80;99.90;;;;;;7299970;32;20431;-56
2023/05/02 11:11:17;;;;;;;11.55;4.00;;;12.30;99.90;;;;;;7304394;32;20245;-57
2023/05/02 11:15:27;;;;;;;7.22;3.12;;;12.10;99.90;;;;;;7302469;32;20411;-56
2023/05/02 11:19:55;;;;;;;11.32;3.92;;;12.00;99.90;;;;;;7308293;32;20647;-56
2023/05/02 11:24:34;;;;;;;12.77;4.60;;;11.80;99.90;;;;;;7309053;32;20217;-55
2023/05/02 11:28:36;;;;;;;9.73;4.50;;;12.00;99.90;;;;;;7296705;32;20126;-55
2023/05/02 11:32:48;;;;;;;11.70;3.95;;;12.20;99.90;;;;;;7301186;32;20225;-56
2023/05/02 11:36:50;;;;;;;10.10;4.90;;;12.60;99.90;;;;;;7303553;32;20118;-57
2023/05/02 11:40:54;;;;;;;10.32;4.62;;;12.80;99.90;;;;;;7304504;32;20171;-57
2023/05/02 11:44:58;;;;;;;10.30;5.30;;;13.90;99.90;;;;;;7303461;32;20739;-56
2023/05/02 11:49:01;;;;;;;8.73;6.00;;;14.10;99.90;;;;;;7312262;32;20111;-57
2023/05/02 11:53:02;;;;;;;9.80;5.35;;;15.30;99.90;;;;;;7303832;32;20189;-56
2023/05/02 11:57:04;;;;;;;7.82;3.97;;;16.10;99.90;;;;;;7306977;32;20210;-56
2023/05/02 12:01:12;;;;;;;10.15;5.68;;;16.70;99.60;;;;;;7307371;32;20130;-56
2023/05/02 12:05:26;;;;;;;12.13;4.28;;;16.40;98.70;;;;;;7302929;32;20115;-57
2023/05/02 12:09:28;;;;;;;10.75;3.80;;;16.60;97.40;;;;;;7304809;32;20112;-56
2023/05/02 12:13:30;;;;;;;9.80;3.87;;;16.50;96.50;;;;;;7305709;32;20238;-57
2023/05/02 12:17:33;;;;;;;9.30;3.80;;;15.90;98.60;;;;;;7301983;32;20140;-56
2023/05/02 12:21:35;;;;;;;9.10;3.70;;;17.30;94.10;;;;;;7297278;32;20234;-56
2023/05/02 12:25:39;;;;;;;8.15;3.60;;;17.80;89.70;;;;;;7303415;32;20219;-56
2023/05/02 12:29:45;;;;;;;9.45;3.60;;;17.70;85.80;;;;;;7299020;32;20307;-56
2023/05/02 12:33:49;;;;;;;7.28;3.50;;;16.50;90.90;;;;;;7295973;32;20095;-56
2023/05/02 12:37:52;;;;;;;6.62;4.07;;;15.20;94.40;;;;;;7298433;32;20534;-56
2023/05/02 12:41:53;;;;;;;11.68;3.53;;;14.90;97.80;;;;;;7293312;32;20210;-56
2023/05/02 12:46:11;;;;;;;5.78;3.70;;;15.90;95.50;;;;;;7299122;32;20114;-56
2023/05/02 12:50:12;;;;;;;7.55;4.50;;;16.10;93.90;;;;;;7297204;32;20198;-55
2023/05/02 12:54:20;;;;;;;10.80;4.28;;;16.00;94.00;;;;;;7296209;32;20218;-56
2023/05/02 12:58:25;;;;;;;11.57;4.45;;;15.90;93.50;;;;;;7292968;32;20339;-56
2023/05/02 13:02:27;;;;;;;10.20;4.55;;;15.90;93.00;;;;;;7293461;32;20182;-57
2023/05/02 13:06:29;;;;;;;8.25;4.35;;;16.30;93.80;;;;;;7296513;32;20520;-60
2023/05/02 13:10:31;;;;;;;7.95;4.47;;;15.10;91.80;;;;;;7296448;32;20108;-61
2023/05/02 13:14:32;;;;;;;11.65;4.37;;;15.40;95.00;;;;;;7296225;32;20206;-62
2023/05/02 13:18:34;;;;;;;7.07;3.20;;;15.00;94.20;;;;;;7302936;32;20126;-61
2023/05/02 13:22:37;;;;;;;7.50;2.80;;;14.60;95.50;;;;;;7302778;32;20195;-61
2023/05/02 13:26:38;;;;;;;7.90;3.42;;;14.20;94.00;;;;;;7299819;32;20104;-63
2023/05/02 13:30:40;;;;;;;7.07;3.58;;;14.30;93.90;;;;;;7300518;32;20256;-62
2023/05/02 13:34:43;;;;;;;6.68;3.70;;;14.80;91.10;;;;;;7298994;32;20092;-62
2023/05/02 13:38:45;;;;;;;8.23;3.17;;;15.30;93.70;;;;;;7299261;32;20798;-62
2023/05/02 13:42:46;;;;;;;11.00;3.40;;;16.80;93.30;;;;;;7300935;32;20303;-61
2023/05/02 13:46:48;;;;;;;4.00;2.22;;;17.30;88.20;;;;;;7299471;32;20222;-63
2023/05/02 13:50:50;;;;;;;7.30;3.10;;;18.10;84.70;;;;;;7296152;32;20293;-63
2023/05/02 13:54:52;;;;;;;9.68;3.08;;;18.40;83.90;;;;;;7297388;32;20119;-61
2023/05/02 13:58:53;;;;;;;6.78;2.60;;;18.80;77.50;;;;;;7306014;32;20127;-56
2023/05/02 14:02:55;;;;;;;5.65;2.58;;;19.50;73.30;;;;;;7308622;32;20104;-56
2023/05/02 14:06:57;;;;;;;6.32;3.00;;;19.50;72.00;;;;;;7301040;32;20273;-56
2023/05/02 14:10:58;;;;;;;4.53;2.70;;;19.00;69.70;;;;;;7318895;32;20122;-57
2023/05/02 14:15:00;;;;;;;4.65;2.75;;;19.00;72.80;;;;;;7310345;32;20334;-56
2023/05/02 14:19:02;;;;;;;9.90;3.75;;;18.20;73.20;;;;;;7315748;32;20159;-57
2023/05/02 14:23:03;;;;;;;10.02;3.47;;;17.30;77.60;;;;;;7305415;32;20095;-56
2023/05/02 14:27:11;;;;;;;7.20;3.28;;;16.50;79.90;;;;;;7305981;32;20203;-57
2023/05/02 14:31:13;;;;;;;7.37;2.85;;;16.50;76.20;;;;;;7300104;32;20183;-57
2023/05/02 14:35:15;;;;;;;6.37;2.33;;;17.20;81.00;;;;;;7305422;32;20308;-56
2023/05/02 14:39:17;;;;;;;7.20;2.83;;;18.50;74.20;;;;;;7296782;32;20222;-57
2023/05/02 14:43:19;;;;;;;8.40;2.70;;;18.50;73.80;;;;;;7304747;32;20252;-56
2023/05/02 14:47:21;;;;;;;6.35;2.97;;;19.00;72.90;;;;;;7305990;32;20112;-57
2023/05/02 14:51:23;;;;;;;4.72;2.42;;;18.80;70.70;;;;;;7308623;32;20253;-57
2023/05/02 14:55:24;;;;;;;7.95;2.67;;;18.80;69.90;;;;;;7310971;32;20100;-56
2023/05/02 14:59:29;;;;;;;6.68;3.12;;;18.10;67.60;;;;;;7307707;32;20825;-57
2023/05/02 15:03:31;;;;;;;5.20;2.70;;;17.10;69.10;;;;;;7303048;32;20109;-57
2023/05/02 15:07:33;;;;;;;7.12;3.35;;;16.30;76.70;;;;;;7305126;32;20210;-57
2023/05/02 15:11:35;;;;;;;7.28;3.53;;;16.40;80.10;;;;;;7307112;32;20125;-57
2023/05/02 15:15:36;;;;;;;10.00;3.67;;;15.70;78.00;;;;;;7303294;32;20228;-56
2023/05/02 15:19:38;;;;;;;7.72;3.28;;;15.80;80.20;;;;;;7306061;32;20135;-56
2023/05/02 15:23:40;;;;;;;9.93;3.33;;;15.60;81.40;;;;;;7308907;32;20191;-57
2023/05/02 15:27:41;;;;;;;11.98;4.15;;;15.50;84.80;;;;;;7301372;32;20316;-58
2023/05/02 15:31:43;;;;;;;10.20;3.05;;;15.50;79.60;;;;;;7298930;32;20104;-56
2023/05/02 15:35:54;;;;;;;10.55;3.35;;;15.30;83.70;;;;;;7312042;32;20368;-57
2023/05/02 15:39:55;;;;;;;8.05;3.20;;;15.20;80.90;;;;;;7301960;32;21068;-56
2023/05/02 15:43:57;;;;;;;9.65;3.33;;;15.00;80.70;;;;;;7296009;32;20117;-57
2023/05/02 15:53:02;;;;;;;8.65;2.80;;;14.90;85.70;;;;;;7298545;32;20100;-56
2023/05/02 15:57:04;;;;;;;8.45;2.72;;;14.90;84.30;;;;;;7308016;32;20100;-56
2023/05/02 16:01:06;;;;;;;7.80;2.97;;;14.90;82.20;;;;;;7305032;32;20248;-57
2023/05/02 16:05:08;;;;;;;9.82;2.95;;;14.80;83.50;;;;;;7302263;32;20151;-56
2023/05/02 16:09:11;;;;;;;7.55;2.80;;;14.50;84.40;;;;;;7308786;32;20136;-56
2023/05/02 16:13:13;;;;;;;6.97;3.67;;;14.70;84.00;;;;;;7309489;32;20104;-56
2023/05/02 16:17:15;;;;;;;11.30;3.53;;;14.50;85.20;;;;;;7303710;32;20650;-57
2023/05/02 16:21:16;;;;;;;9.63;2.90;;;14.30;86.60;;;;;;7304843;32;20105;-56
2023/05/02 16:25:18;;;;;;;10.95;3.70;;;14.40;87.40;;;;;;7309501;32;20479;-56
2023/05/02 16:29:20;;;;;;;8.05;3.03;;;14.50;85.50;;;;;;7306764;32;20130;-56
2023/05/02 16:33:22;;;;;;;13.00;3.10;;;14.60;86.70;;;;;;7298009;32;20221;-57
2023/05/02 16:37:23;;;;;;;9.05;2.62;;;14.40;86.50;;;;;;7297734;32;20196;-56
2023/05/02 16:41:25;;;;;;;11.55;3.95;;;14.40;88.40;;;;;;7297351;32;20108;-56
2023/05/02 16:45:27;;;;;;;15.55;3.37;;;13.90;86.50;;;;;;7293798;32;20304;-56
2023/05/02 16:49:29;;;;;;;10.13;3.40;;;13.90;87.30;;;;;;7290822;32;20178;-56
2023/05/02 16:53:30;;;;;;;8.90;2.90;;;13.70;90.10;;;;;;7302201;32;20100;-57
2023/05/02 16:57:32;;;;;;;9.48;3.05;;;13.40;89.90;;;;;;7323841;32;20107;-57
2023/05/02 17:01:34;;;;;;;12.07;3.17;;;13.40;90.30;;;;;;7320474;32;20161;-57
2023/05/02 17:05:36;;;;;;;10.38;3.45;;;13.40;88.50;;;;;;7332079;32;20128;-57
2023/05/02 17:09:40;;;;;;;8.20;2.87;;;13.10;89.60;;;;;;7335852;32;20148;-56
2023/05/02 17:13:42;;;;;;;9.65;3.00;;;13.00;90.30;;;;;;7324023;32;20108;-56
2023/05/02 17:17:44;;;;;;;11.12;2.85;;;13.00;89.80;;;;;;7326215;32;20810;-57
2023/05/02 17:21:46;;;;;;;11.43;3.15;;;12.80;88.70;;;;;;7310978;32;20119;-57
2023/05/02 17:25:48;;;;;;;8.10;2.90;;;12.60;89.00;;;;;;7310255;32;20198;-56
2023/05/02 17:29:49;;;;;;;8.82;3.40;;;12.50;90.70;;;;;;7306645;32;20223;-56
2023/05/02 17:33:51;;;;;;;7.93;2.70;;;12.60;89.20;;;;;;7304066;32;20135;-56
2023/05/02 17:37:54;;;;;;;12.30;3.10;;;12.50;89.30;;;;;;7306314;32;20134;-56
2023/05/02 17:41:55;;;;;;;7.03;2.97;;;12.40;91.50;;;;;;7307604;32;20100;-56
2023/05/02 17:45:57;;;;;;;7.78;2.58;;;12.30;92.90;;;;;;7303519;32;20276;-56
2023/05/02 17:50:01;;;;;;;7.00;3.10;;;12.20;92.10;;;;;;7304723;32;20135;-56
2023/05/02 17:54:03;;;;;;;8.63;3.60;;;12.30;91.80;;;;;;7305915;32;20693;-56
2023/05/02 17:58:05;;;;;;;10.45;3.20;;;11.90;94.70;;;;;;7307367;32;20100;-56
2023/05/02 18:02:07;;;;;;;7.82;2.90;;;11.90;93.80;;;;;;7305155;32;20183;-56
2023/05/02 18:06:15;;;;;;;7.82;3.40;;;11.90;94.10;;;;;;7303339;32;20443;-55
2023/05/02 18:10:17;;;;;;;7.50;3.10;;;11.70;95.80;;;;;;7305313;32;20121;-56
2023/05/02 18:14:19;;;;;;;9.75;3.10;;;11.70;95.30;;;;;;7304255;32;20130;-56
2023/05/02 18:18:21;;;;;;;10.63;3.40;;;11.40;98.30;;;;;;7308348;32;20205;-56
2023/05/02 18:22:23;;;;;;;8.80;3.22;;;11.30;99.70;;;;;;7305591;32;20198;-57
2023/05/02 18:26:25;;;;;;;7.05;2.83;;;11.20;99.40;;;;;;7300666;32;20467;-56
2023/05/02 18:30:26;;;;;;;8.50;3.35;;;11.00;99.90;;;;;;7302478;32;20167;-57
2023/05/02 18:34:32;;;;;;;7.05;2.60;;;10.90;99.90;;;;;;7306387;32;20521;-56
2023/05/02 18:38:36;;;;;;;11.00;2.83;;;10.70;99.90;;;;;;7307113;32;20112;-56
2023/05/02 18:42:38;;;;;;;5.70;2.75;;;10.60;99.90;;;;;;7309276;32;20145;-55
2023/05/02 18:46:39;;;;;;;11.48;2.80;;;10.40;99.90;;;;;;7309847;32;20302;-56
2023/05/02 18:50:41;;;;;;;6.95;2.35;;;10.20;99.90;;;;;;7314221;32;20130;-56
2023/05/02 18:54:43;;;;;;;9.70;3.22;;;10.10;99.90;;;;;;7305199;32;20481;-56
2023/05/02 18:58:45;;;;;;;8.38;3.05;;;10.00;99.90;;;;;;7305405;32;20103;-54
2023/05/02 19:02:51;;;;;;;8.73;2.55;;;9.90;99.90;;;;;;7295173;32;20427;-55
2023/05/02 19:06:53;;;;;;;7.47;2.75;;;9.80;99.90;;;;;;7304798;32;20163;-55
2023/05/02 19:10:54;;;;;;;16.80;3.25;;;9.60;99.90;;;;;;7305008;32;20408;-55
2023/05/02 19:14:56;;;;;;;9.00;3.30;;;9.40;99.90;;;;;;7304848;32;20103;-55
2023/05/02 19:18:58;;;;;;;9.48;2.95;;;9.20;99.90;;;;;;7307216;32;20099;-55
2023/05/02 19:22:59;;;;;;;5.20;2.72;;;9.10;99.90;;;;;;7303185;32;20119;-55
2023/05/02 19:27:20;;;;;;;5.35;2.55;;;9.00;99.90;;;;;;7303965;32;20120;-55
2023/05/02 19:31:22;;;;;;;5.68;2.92;;;8.80;99.90;;;;;;7298496;32;20131;-55
2023/05/02 19:35:24;;;;;;;9.65;2.87;;;8.70;99.90;;;;;;7301518;32;20112;-55
2023/05/02 19:39:27;;;;;;;21.55;13.02;;;8.50;99.90;;;;;;7309467;32;20236;-54
2023/05/02 19:43:28;;;;;;;7.12;3.60;;;8.30;99.90;;;;;;7311363;32;20269;-55
2023/05/02 19:47:31;;;;;;;7.90;3.15;;;8.20;99.90;;;;;;7302275;32;20818;-56
2023/05/02 19:51:34;;;;;;;9.63;3.17;;;8.00;99.90;;;;;;7310000;32;20108;-55
2023/05/02 19:55:35;;;;;;;7.07;3.10;;;7.90;99.90;;;;;;7310581;32;20571;-55
2023/05/02 19:59:37;;;;;;;10.60;3.20;;;7.70;99.90;;;;;;7308568;32;20101;-55
2023/05/02 20:03:39;;;;;;;8.07;3.78;;;7.60;99.90;;;;;;7308014;32;20142;-55
2023/05/02 20:07:43;;;;;;;10.00;3.25;;;7.50;99.90;;;;;;7305605;32;20733;-54
2023/05/02 20:11:44;;;;;;;8.95;3.40;;;7.40;99.90;;;;;;7311623;32;20120;-55
2023/05/02 20:15:49;;;;;;;8.40;3.20;;;7.20;99.90;;;;;;7303826;32;20104;-55
2023/05/02 20:19:51;;;;;;;8.70;3.62;;;7.00;99.90;;;;;;7298024;32;20233;-55
2023/05/02 20:23:52;;;;;;;7.37;3.30;;;6.90;99.90;;;;;;7303499;32;20213;-55
2023/05/02 20:27:54;;;;;;;8.20;3.92;;;6.90;99.90;;;;;;7308528;32;20137;-55
2023/05/02 20:31:56;;;;;;;9.80;3.65;;;6.70;99.90;;;;;;7303010;32;20381;-55
2023/05/02 20:35:58;;;;;;;8.23;3.47;;;6.60;99.90;;;;;;7301879;32;20474;-54
2023/05/02 20:39:59;;;;;;;10.65;3.78;;;6.50;99.90;;;;;;7304205;32;20219;-54
2023/05/02 20:44:02;;;;;;;9.50;3.95;;;6.40;99.90;;;;;;7300685;32;20275;-55
2023/05/02 20:48:04;;;;;;;8.27;3.55;;;6.30;99.90;;;;;;7300953;32;20123;-55
2023/05/02 20:52:06;;;;;;;6.25;3.65;;;6.20;99.90;;;;;;7303142;32;20285;-55
2023/05/02 20:56:07;;;;;;;5.82;3.20;;;6.10;99.90;;;;;;7302640;32;20291;-55
2023/05/02 21:00:12;;;;;;;7.97;3.50;;;6.00;99.90;;;;;;7302323;32;20118;-55
2023/05/02 21:04:14;;;;;;;9.23;3.95;;;6.00;99.90;;;;;;7304397;32;20247;-55